sensor_id;sensor_type;location;lat;lon;timestamp;P1;durP1;ratioP1;P2;durP2;ratioP2
68577;SDS011;61668;45.388;11.784;2023-05-08T00:02:19;25.60;;;12.00;;
68577;SDS011;61668;45.388;11.784;2023-05-08T00:04:45;21.80;;;12.70;;
68577;SDS011;61668;45.388;11.784;2023-05-08T00:07:11;19.10;;;12.10;;
68577;SDS011;61668;45.388;11.784;2023-05-08T00:09:36;20.00;;;11.20;;
68577;SDS011;61668;45.388;11.784;2023-05-08T00:12:02;17.50;;;9.30;;
68577;SDS011;61668;45.388;11.784;2023-05-08T00:14:29;16.30;;;8.70;;
68577;SDS011;61668;45.388;11.784;2023-05-08T00:16:54;15.50;;;8.30;;
68577;SDS011;61668;45.388;11.784;2023-05-08T00:19:20;16.90;;;9.20;;
68577;SDS011;61668;45.388;11.784;2023-05-08T00:21:46;14.00;;;7.60;;
68577;SDS011;61668;45.388;11.784;2023-05-08T00:24:11;11.40;;;5.20;;
68577;SDS011;61668;45.388;11.784;2023-05-08T00:26:37;9.10;;;3.10;;
68577;SDS011;61668;45.388;11.784;2023-05-08T00:29:03;8.20;;;2.60;;
68577;SDS011;61668;45.388;11.784;2023-05-08T00:31:29;8.90;;;2.60;;
68577;SDS011;61668;45.388;11.784;2023-05-08T00:33:55;7.00;;;2.00;;
68577;SDS011;61668;45.388;11.784;2023-05-08T00:36:20;7.30;;;1.70;;
68577;SDS011;61668;45.388;11.784;2023-05-08T00:38:46;7.90;;;2.30;;
68577;SDS011;61668;45.388;11.784;2023-05-08T00:41:12;7.10;;;1.90;;
68577;SDS011;61668;45.388;11.784;2023-05-08T00:43:38;6.80;;;1.90;;
68577;SDS011;61668;45.388;11.784;2023-05-08T00:46:04;7.40;;;1.70;;
68577;SDS011;61668;45.388;11.784;2023-05-08T00:48:32;7.80;;;1.70;;
68577;SDS011;61668;45.388;11.784;2023-05-08T00:51:00;8.40;;;1.90;;
68577;SDS011;61668;45.388;11.784;2023-05-08T00:53:29;8.30;;;2.00;;
68577;SDS011;61668;45.388;11.784;2023-05-08T00:55:57;7.40;;;2.20;;
68577;SDS011;61668;45.388;11.784;2023-05-08T00:58:25;7.10;;;2.00;;
68577;SDS011;61668;45.388;11.784;2023-05-08T01:00:54;7.30;;;2.20;;
68577;SDS011;61668;45.388;11.784;2023-05-08T01:03:21;7.40;;;1.90;;
68577;SDS011;61668;45.388;11.784;2023-05-08T01:05:48;7.40;;;2.00;;
68577;SDS011;61668;45.388;11.784;2023-05-08T01:08:14;7.80;;;2.00;;
68577;SDS011;61668;45.388;11.784;2023-05-08T01:11:11;7.60;;;1.70;;
68577;SDS011;61668;45.388;11.784;2023-05-08T01:17:02;6.30;;;1.60;;
68577;SDS011;61668;45.388;11.784;2023-05-08T01:19:50;8.40;;;2.00;;
68577;SDS011;61668;45.388;11.784;2023-05-08T01:29:11;7.90;;;1.60;;
68577;SDS011;61668;45.388;11.784;2023-05-08T01:32:14;8.20;;;2.60;;
68577;SDS011;61668;45.388;11.784;2023-05-08T01:40:55;6.60;;;1.00;;
68577;SDS011;61668;45.388;11.784;2023-05-08T01:43:41;6.30;;;0.60;;
68577;SDS011;61668;45.388;11.784;2023-05-08T01:46:17;6.30;;;0.70;;
68577;SDS011;61668;45.388;11.784;2023-05-08T01:51:59;6.70;;;0.80;;
68577;SDS011;61668;45.388;11.784;2023-05-08T01:54:35;6.10;;;0.80;;
68577;SDS011;61668;45.388;11.784;2023-05-08T01:57:05;5.80;;;0.60;;
68577;SDS011;61668;45.388;11.784;2023-05-08T01:59:34;6.00;;;0.60;;
68577;SDS011;61668;45.388;11.784;2023-05-08T02:02:02;5.20;;;0.60;;
68577;SDS011;61668;45.388;11.784;2023-05-08T02:04:28;5.80;;;0.70;;
68577;SDS011;61668;45.388;11.784;2023-05-08T02:06:56;5.60;;;1.00;;
68577;SDS011;61668;45.388;11.784;2023-05-08T02:09:24;5.70;;;1.10;;
68577;SDS011;61668;45.388;11.784;2023-05-08T02:11:52;6.20;;;1.10;;
68577;SDS011;61668;45.388;11.784;2023-05-08T02:14:19;6.20;;;1.00;;
68577;SDS011;61668;45.388;11.784;2023-05-08T02:16:47;5.40;;;0.60;;
68577;SDS011;61668;45.388;11.784;2023-05-08T02:19:14;6.40;;;0.80;;
68577;SDS011;61668;45.388;11.784;2023-05-08T02:21:43;5.50;;;0.50;;
68577;SDS011;61668;45.388;11.784;2023-05-08T02:24:12;6.20;;;0.90;;
68577;SDS011;61668;45.388;11.784;2023-05-08T02:26:40;4.80;;;0.40;;
68577;SDS011;61668;45.388;11.784;2023-05-08T02:29:07;5.00;;;0.70;;
68577;SDS011;61668;45.388;11.784;2023-05-08T02:31:34;5.00;;;0.70;;
68577;SDS011;61668;45.388;11.784;2023-05-08T02:34:03;6.00;;;0.70;;
68577;SDS011;61668;45.388;11.784;2023-05-08T02:36:30;6.00;;;0.60;;
68577;SDS011;61668;45.388;11.784;2023-05-08T02:38:57;5.20;;;0.60;;
68577;SDS011;61668;45.388;11.784;2023-05-08T02:41:27;5.90;;;0.50;;
68577;SDS011;61668;45.388;11.784;2023-05-08T02:43:55;5.60;;;0.90;;
68577;SDS011;61668;45.388;11.784;2023-05-08T02:46:43;7.30;;;0.70;;
68577;SDS011;61668;45.388;11.784;2023-05-08T02:49:32;5.30;;;0.50;;
68577;SDS011;61668;45.388;11.784;2023-05-08T02:52:03;4.20;;;0.50;;
68577;SDS011;61668;45.388;11.784;2023-05-08T02:54:42;5.80;;;0.60;;
68577;SDS011;61668;45.388;11.784;2023-05-08T02:57:34;6.10;;;0.60;;
68577;SDS011;61668;45.388;11.784;2023-05-08T03:00:19;4.00;;;0.30;;
68577;SDS011;61668;45.388;11.784;2023-05-08T03:03:31;3.70;;;0.30;;
68577;SDS011;61668;45.388;11.784;2023-05-08T03:06:13;5.40;;;0.30;;
68577;SDS011;61668;45.388;11.784;2023-05-08T03:08:43;5.10;;;0.30;;
68577;SDS011;61668;45.388;11.784;2023-05-08T03:11:15;3.80;;;0.40;;
68577;SDS011;61668;45.388;11.784;2023-05-08T03:13:49;4.40;;;0.30;;
68577;SDS011;61668;45.388;11.784;2023-05-08T03:16:21;5.60;;;0.40;;
68577;SDS011;61668;45.388;11.784;2023-05-08T03:18:55;5.70;;;0.50;;
68577;SDS011;61668;45.388;11.784;2023-05-08T03:21:28;4.70;;;0.50;;
68577;SDS011;61668;45.388;11.784;2023-05-08T03:23:57;5.50;;;0.40;;
68577;SDS011;61668;45.388;11.784;2023-05-08T03:26:24;5.60;;;1.00;;
68577;SDS011;61668;45.388;11.784;2023-05-08T03:28:52;5.30;;;0.60;;
68577;SDS011;61668;45.388;11.784;2023-05-08T03:31:20;5.90;;;0.60;;
68577;SDS011;61668;45.388;11.784;2023-05-08T03:33:49;5.30;;;0.70;;
68577;SDS011;61668;45.388;11.784;2023-05-08T03:36:18;5.70;;;0.60;;
68577;SDS011;61668;45.388;11.784;2023-05-08T03:38:44;5.00;;;0.60;;
68577;SDS011;61668;45.388;11.784;2023-05-08T03:41:11;5.00;;;0.60;;
68577;SDS011;61668;45.388;11.784;2023-05-08T03:43:38;5.50;;;0.90;;
68577;SDS011;61668;45.388;11.784;2023-05-08T03:46:05;7.90;;;1.10;;
68577;SDS011;61668;45.388;11.784;2023-05-08T03:48:34;6.20;;;1.50;;
68577;SDS011;61668;45.388;11.784;2023-05-08T03:51:01;6.60;;;2.10;;
68577;SDS011;61668;45.388;11.784;2023-05-08T03:53:28;7.50;;;1.60;;
68577;SDS011;61668;45.388;11.784;2023-05-08T03:55:59;7.20;;;1.70;;
68577;SDS011;61668;45.388;11.784;2023-05-08T03:58:53;8.80;;;2.20;;
68577;SDS011;61668;45.388;11.784;2023-05-08T04:01:37;8.50;;;2.20;;
68577;SDS011;61668;45.388;11.784;2023-05-08T04:04:29;6.90;;;1.60;;
68577;SDS011;61668;45.388;11.784;2023-05-08T04:07:09;8.80;;;2.00;;
68577;SDS011;61668;45.388;11.784;2023-05-08T04:12:12;8.00;;;2.30;;
68577;SDS011;61668;45.388;11.784;2023-05-08T04:14:48;8.60;;;2.10;;
68577;SDS011;61668;45.388;11.784;2023-05-08T04:17:33;7.70;;;1.90;;
68577;SDS011;61668;45.388;11.784;2023-05-08T04:20:03;8.10;;;2.00;;
68577;SDS011;61668;45.388;11.784;2023-05-08T04:22:34;7.70;;;1.60;;
68577;SDS011;61668;45.388;11.784;2023-05-08T04:25:04;7.80;;;2.30;;
68577;SDS011;61668;45.388;11.784;2023-05-08T04:27:32;8.10;;;2.20;;
68577;SDS011;61668;45.388;11.784;2023-05-08T04:30:00;10.40;;;2.10;;
68577;SDS011;61668;45.388;11.784;2023-05-08T04:32:28;8.50;;;2.80;;
68577;SDS011;61668;45.388;11.784;2023-05-08T04:34:54;7.50;;;2.10;;
68577;SDS011;61668;45.388;11.784;2023-05-08T04:37:28;9.90;;;2.70;;
68577;SDS011;61668;45.388;11.784;2023-05-08T04:40:00;8.50;;;2.40;;
68577;SDS011;61668;45.388;11.784;2023-05-08T04:42:27;8.40;;;2.50;;
68577;SDS011;61668;45.388;11.784;2023-05-08T04:44:54;7.60;;;1.90;;
68577;SDS011;61668;45.388;11.784;2023-05-08T04:47:20;9.10;;;2.80;;
68577;SDS011;61668;45.388;11.784;2023-05-08T04:49:46;8.20;;;2.60;;
68577;SDS011;61668;45.388;11.784;2023-05-08T04:52:12;8.30;;;2.40;;
68577;SDS011;61668;45.388;11.784;2023-05-08T04:54:37;9.10;;;3.10;;
68577;SDS011;61668;45.388;11.784;2023-05-08T04:57:03;9.50;;;3.10;;
68577;SDS011;61668;45.388;11.784;2023-05-08T04:59:31;8.70;;;2.60;;
68577;SDS011;61668;45.388;11.784;2023-05-08T05:01:57;9.30;;;2.50;;
68577;SDS011;61668;45.388;11.784;2023-05-08T05:04:25;8.80;;;2.40;;
68577;SDS011;61668;45.388;11.784;2023-05-08T05:06:51;9.60;;;3.00;;
68577;SDS011;61668;45.388;11.784;2023-05-08T05:09:17;8.60;;;2.70;;
68577;SDS011;61668;45.388;11.784;2023-05-08T05:11:43;9.30;;;3.30;;
68577;SDS011;61668;45.388;11.784;2023-05-08T05:14:09;9.40;;;3.60;;
68577;SDS011;61668;45.388;11.784;2023-05-08T05:16:34;10.00;;;4.00;;
68577;SDS011;61668;45.388;11.784;2023-05-08T05:19:01;9.70;;;3.70;;
68577;SDS011;61668;45.388;11.784;2023-05-08T05:21:27;11.00;;;4.70;;
68577;SDS011;61668;45.388;11.784;2023-05-08T05:23:53;10.80;;;4.70;;
68577;SDS011;61668;45.388;11.784;2023-05-08T05:26:19;12.30;;;4.80;;
68577;SDS011;61668;45.388;11.784;2023-05-08T05:28:46;13.10;;;4.80;;
68577;SDS011;61668;45.388;11.784;2023-05-08T05:31:11;11.90;;;4.90;;
68577;SDS011;61668;45.388;11.784;2023-05-08T05:33:37;12.10;;;4.70;;
68577;SDS011;61668;45.388;11.784;2023-05-08T05:36:03;14.00;;;6.20;;
68577;SDS011;61668;45.388;11.784;2023-05-08T05:38:29;12.00;;;4.90;;
68577;SDS011;61668;45.388;11.784;2023-05-08T05:40:56;12.00;;;5.40;;
68577;SDS011;61668;45.388;11.784;2023-05-08T05:43:21;12.30;;;4.50;;
68577;SDS011;61668;45.388;11.784;2023-05-08T05:45:47;10.50;;;4.80;;
68577;SDS011;61668;45.388;11.784;2023-05-08T05:48:13;12.40;;;5.40;;
68577;SDS011;61668;45.388;11.784;2023-05-08T05:50:38;14.10;;;5.70;;
68577;SDS011;61668;45.388;11.784;2023-05-08T05:53:04;13.00;;;6.40;;
68577;SDS011;61668;45.388;11.784;2023-05-08T05:55:30;11.60;;;5.40;;
68577;SDS011;61668;45.388;11.784;2023-05-08T05:57:56;12.50;;;5.60;;
68577;SDS011;61668;45.388;11.784;2023-05-08T06:00:22;11.40;;;5.60;;
68577;SDS011;61668;45.388;11.784;2023-05-08T06:02:47;11.80;;;5.40;;
68577;SDS011;61668;45.388;11.784;2023-05-08T06:05:13;12.40;;;5.50;;
68577;SDS011;61668;45.388;11.784;2023-05-08T06:07:39;11.80;;;5.30;;
68577;SDS011;61668;45.388;11.784;2023-05-08T06:10:06;11.20;;;5.00;;
68577;SDS011;61668;45.388;11.784;2023-05-08T06:12:32;11.80;;;4.80;;
68577;SDS011;61668;45.388;11.784;2023-05-08T06:14:58;11.40;;;5.00;;
68577;SDS011;61668;45.388;11.784;2023-05-08T06:17:23;13.40;;;5.40;;
68577;SDS011;61668;45.388;11.784;2023-05-08T06:19:49;12.10;;;4.70;;
68577;SDS011;61668;45.388;11.784;2023-05-08T06:22:19;11.20;;;4.70;;
68577;SDS011;61668;45.388;11.784;2023-05-08T06:24:48;14.10;;;5.30;;
68577;SDS011;61668;45.388;11.784;2023-05-08T06:27:14;10.80;;;5.10;;
68577;SDS011;61668;45.388;11.784;2023-05-08T06:29:40;12.70;;;5.20;;
68577;SDS011;61668;45.388;11.784;2023-05-08T06:32:05;11.20;;;4.60;;
68577;SDS011;61668;45.388;11.784;2023-05-08T06:34:31;12.50;;;5.10;;
68577;SDS011;61668;45.388;11.784;2023-05-08T06:36:57;13.20;;;5.30;;
68577;SDS011;61668;45.388;11.784;2023-05-08T06:39:22;11.30;;;5.00;;
68577;SDS011;61668;45.388;11.784;2023-05-08T06:41:48;10.80;;;4.50;;
68577;SDS011;61668;45.388;11.784;2023-05-08T06:44:14;11.80;;;5.10;;
68577;SDS011;61668;45.388;11.784;2023-05-08T06:46:40;12.00;;;4.60;;
68577;SDS011;61668;45.388;11.784;2023-05-08T06:49:06;12.50;;;4.50;;
68577;SDS011;61668;45.388;11.784;2023-05-08T06:51:32;11.80;;;3.70;;
68577;SDS011;61668;45.388;11.784;2023-05-08T06:54:00;12.90;;;4.40;;
68577;SDS011;61668;45.388;11.784;2023-05-08T06:56:26;10.10;;;4.00;;
68577;SDS011;61668;45.388;11.784;2023-05-08T06:58:52;11.90;;;4.40;;
68577;SDS011;61668;45.388;11.784;2023-05-08T07:01:17;10.60;;;3.70;;
68577;SDS011;61668;45.388;11.784;2023-05-08T07:03:43;10.40;;;4.00;;
68577;SDS011;61668;45.388;11.784;2023-05-08T07:06:09;10.70;;;3.50;;
68577;SDS011;61668;45.388;11.784;2023-05-08T07:08:35;10.20;;;3.30;;
68577;SDS011;61668;45.388;11.784;2023-05-08T07:11:01;10.00;;;3.80;;
68577;SDS011;61668;45.388;11.784;2023-05-08T07:13:28;9.30;;;3.40;;
68577;SDS011;61668;45.388;11.784;2023-05-08T07:15:54;10.20;;;4.20;;
68577;SDS011;61668;45.388;11.784;2023-05-08T07:18:20;10.10;;;3.60;;
68577;SDS011;61668;45.388;11.784;2023-05-08T07:20:46;9.00;;;3.40;;
68577;SDS011;61668;45.388;11.784;2023-05-08T07:23:12;8.40;;;2.80;;
68577;SDS011;61668;45.388;11.784;2023-05-08T07:25:38;8.00;;;2.80;;
68577;SDS011;61668;45.388;11.784;2023-05-08T07:28:04;9.20;;;3.90;;
68577;SDS011;61668;45.388;11.784;2023-05-08T07:30:29;8.70;;;2.80;;
68577;SDS011;61668;45.388;11.784;2023-05-08T07:32:55;8.90;;;3.10;;
68577;SDS011;61668;45.388;11.784;2023-05-08T07:35:21;8.40;;;3.10;;
68577;SDS011;61668;45.388;11.784;2023-05-08T07:37:47;10.00;;;3.20;;
68577;SDS011;61668;45.388;11.784;2023-05-08T07:40:14;8.60;;;3.30;;
68577;SDS011;61668;45.388;11.784;2023-05-08T07:42:43;8.60;;;3.10;;
68577;SDS011;61668;45.388;11.784;2023-05-08T07:45:11;8.70;;;2.50;;
68577;SDS011;61668;45.388;11.784;2023-05-08T07:47:38;11.20;;;3.00;;
68577;SDS011;61668;45.388;11.784;2023-05-08T07:50:12;8.00;;;2.70;;
68577;SDS011;61668;45.388;11.784;2023-05-08T07:52:38;8.80;;;2.60;;
68577;SDS011;61668;45.388;11.784;2023-05-08T07:55:04;7.30;;;2.50;;
68577;SDS011;61668;45.388;11.784;2023-05-08T07:57:37;8.30;;;2.40;;
68577;SDS011;61668;45.388;11.784;2023-05-08T08:00:08;8.10;;;2.20;;
68577;SDS011;61668;45.388;11.784;2023-05-08T08:02:36;7.00;;;1.70;;
68577;SDS011;61668;45.388;11.784;2023-05-08T08:05:03;8.20;;;2.40;;
68577;SDS011;61668;45.388;11.784;2023-05-08T08:07:30;7.70;;;2.80;;
68577;SDS011;61668;45.388;11.784;2023-05-08T08:09:59;8.60;;;1.90;;
68577;SDS011;61668;45.388;11.784;2023-05-08T08:12:25;7.50;;;2.70;;
68577;SDS011;61668;45.388;11.784;2023-05-08T08:14:52;8.40;;;1.80;;
68577;SDS011;61668;45.388;11.784;2023-05-08T08:17:17;7.80;;;2.10;;
68577;SDS011;61668;45.388;11.784;2023-05-08T08:19:43;6.80;;;2.20;;
68577;SDS011;61668;45.388;11.784;2023-05-08T08:22:09;7.60;;;2.40;;
68577;SDS011;61668;45.388;11.784;2023-05-08T08:24:35;7.00;;;2.30;;
68577;SDS011;61668;45.388;11.784;2023-05-08T08:27:01;7.60;;;2.20;;
68577;SDS011;61668;45.388;11.784;2023-05-08T08:29:26;7.90;;;2.30;;
68577;SDS011;61668;45.388;11.784;2023-05-08T08:31:52;9.50;;;2.40;;
68577;SDS011;61668;45.388;11.784;2023-05-08T08:34:18;9.20;;;2.10;;
68577;SDS011;61668;45.388;11.784;2023-05-08T08:36:44;9.90;;;2.60;;
68577;SDS011;61668;45.388;11.784;2023-05-08T08:39:09;8.30;;;2.40;;
68577;SDS011;61668;45.388;11.784;2023-05-08T08:41:38;7.60;;;2.40;;
68577;SDS011;61668;45.388;11.784;2023-05-08T08:44:04;8.80;;;3.00;;
68577;SDS011;61668;45.388;11.784;2023-05-08T08:46:31;9.80;;;2.70;;
68577;SDS011;61668;45.388;11.784;2023-05-08T08:49:03;8.70;;;2.70;;
68577;SDS011;61668;45.388;11.784;2023-05-08T08:51:59;8.40;;;3.00;;
68577;SDS011;61668;45.388;11.784;2023-05-08T08:54:28;8.60;;;2.50;;
68577;SDS011;61668;45.388;11.784;2023-05-08T08:57:00;8.20;;;2.80;;
68577;SDS011;61668;45.388;11.784;2023-05-08T08:59:27;7.90;;;2.70;;
68577;SDS011;61668;45.388;11.784;2023-05-08T09:01:56;8.10;;;2.60;;
68577;SDS011;61668;45.388;11.784;2023-05-08T09:04:24;9.50;;;2.60;;
68577;SDS011;61668;45.388;11.784;2023-05-08T09:06:52;8.40;;;2.80;;
68577;SDS011;61668;45.388;11.784;2023-05-08T09:09:19;10.00;;;3.30;;
68577;SDS011;61668;45.388;11.784;2023-05-08T09:11:45;9.50;;;3.20;;
68577;SDS011;61668;45.388;11.784;2023-05-08T09:14:11;10.60;;;3.40;;
68577;SDS011;61668;45.388;11.784;2023-05-08T09:16:37;10.50;;;3.40;;
68577;SDS011;61668;45.388;11.784;2023-05-08T09:19:04;9.00;;;3.90;;
68577;SDS011;61668;45.388;11.784;2023-05-08T09:21:31;10.40;;;3.20;;
68577;SDS011;61668;45.388;11.784;2023-05-08T09:23:58;9.10;;;3.40;;
68577;SDS011;61668;45.388;11.784;2023-05-08T09:26:36;9.50;;;3.80;;
68577;SDS011;61668;45.388;11.784;2023-05-08T09:29:21;8.60;;;3.20;;
68577;SDS011;61668;45.388;11.784;2023-05-08T09:31:48;9.70;;;3.80;;
68577;SDS011;61668;45.388;11.784;2023-05-08T09:34:25;10.10;;;4.50;;
68577;SDS011;61668;45.388;11.784;2023-05-08T09:37:16;9.70;;;4.50;;
68577;SDS011;61668;45.388;11.784;2023-05-08T09:39:41;10.00;;;4.50;;
68577;SDS011;61668;45.388;11.784;2023-05-08T09:42:08;10.20;;;4.00;;
68577;SDS011;61668;45.388;11.784;2023-05-08T09:44:45;10.20;;;4.60;;
68577;SDS011;61668;45.388;11.784;2023-05-08T09:47:19;9.00;;;4.10;;
68577;SDS011;61668;45.388;11.784;2023-05-08T09:50:03;11.10;;;5.10;;
68577;SDS011;61668;45.388;11.784;2023-05-08T09:52:35;11.30;;;4.70;;
68577;SDS011;61668;45.388;11.784;2023-05-08T09:55:10;11.60;;;4.50;;
68577;SDS011;61668;45.388;11.784;2023-05-08T09:57:38;12.10;;;4.80;;
68577;SDS011;61668;45.388;11.784;2023-05-08T10:00:09;11.20;;;5.20;;
68577;SDS011;61668;45.388;11.784;2023-05-08T10:02:38;11.70;;;5.30;;
68577;SDS011;61668;45.388;11.784;2023-05-08T10:05:28;10.50;;;4.60;;
68577;SDS011;61668;45.388;11.784;2023-05-08T10:08:20;10.30;;;4.60;;
68577;SDS011;61668;45.388;11.784;2023-05-08T10:10:47;10.70;;;4.30;;
68577;SDS011;61668;45.388;11.784;2023-05-08T10:13:14;10.20;;;4.30;;
68577;SDS011;61668;45.388;11.784;2023-05-08T10:15:41;11.50;;;4.80;;
68577;SDS011;61668;45.388;11.784;2023-05-08T10:18:08;11.20;;;5.30;;
68577;SDS011;61668;45.388;11.784;2023-05-08T10:20:40;11.90;;;5.30;;
68577;SDS011;61668;45.388;11.784;2023-05-08T10:23:12;10.30;;;5.10;;
68577;SDS011;61668;45.388;11.784;2023-05-08T10:25:45;10.80;;;5.30;;
68577;SDS011;61668;45.388;11.784;2023-05-08T10:31:02;11.70;;;5.40;;
68577;SDS011;61668;45.388;11.784;2023-05-08T10:33:34;13.20;;;5.30;;
68577;SDS011;61668;45.388;11.784;2023-05-08T10:36:00;13.20;;;6.10;;
68577;SDS011;61668;45.388;11.784;2023-05-08T10:38:27;12.70;;;5.80;;
68577;SDS011;61668;45.388;11.784;2023-05-08T10:40:59;10.40;;;5.40;;
68577;SDS011;61668;45.388;11.784;2023-05-08T10:43:27;12.30;;;6.20;;
68577;SDS011;61668;45.388;11.784;2023-05-08T10:45:56;13.40;;;6.10;;
68577;SDS011;61668;45.388;11.784;2023-05-08T10:48:42;11.60;;;5.40;;
68577;SDS011;61668;45.388;11.784;2023-05-08T10:56:15;11.80;;;5.20;;
68577;SDS011;61668;45.388;11.784;2023-05-08T10:58:41;12.60;;;6.20;;
68577;SDS011;61668;45.388;11.784;2023-05-08T11:03:39;13.30;;;6.80;;
68577;SDS011;61668;45.388;11.784;2023-05-08T11:06:07;14.40;;;6.60;;
68577;SDS011;61668;45.388;11.784;2023-05-08T11:08:45;15.70;;;7.20;;
68577;SDS011;61668;45.388;11.784;2023-05-08T11:11:33;13.50;;;6.00;;
68577;SDS011;61668;45.388;11.784;2023-05-08T11:19:24;13.70;;;6.00;;
68577;SDS011;61668;45.388;11.784;2023-05-08T11:24:39;13.60;;;5.40;;
68577;SDS011;61668;45.388;11.784;2023-05-08T11:27:13;12.70;;;6.50;;
68577;SDS011;61668;45.388;11.784;2023-05-08T11:29:40;13.00;;;6.60;;
68577;SDS011;61668;45.388;11.784;2023-05-08T11:32:06;12.00;;;5.80;;
68577;SDS011;61668;45.388;11.784;2023-05-08T11:37:18;13.30;;;5.70;;
68577;SDS011;61668;45.388;11.784;2023-05-08T11:39:46;11.70;;;5.90;;
68577;SDS011;61668;45.388;11.784;2023-05-08T11:47:38;11.40;;;6.00;;
68577;SDS011;61668;45.388;11.784;2023-05-08T11:50:07;13.40;;;6.30;;
68577;SDS011;61668;45.388;11.784;2023-05-08T11:52:34;11.90;;;5.80;;
68577;SDS011;61668;45.388;11.784;2023-05-08T11:55:08;10.80;;;5.30;;
68577;SDS011;61668;45.388;11.784;2023-05-08T11:57:35;11.70;;;5.90;;
68577;SDS011;61668;45.388;11.784;2023-05-08T12:00:06;12.50;;;6.60;;
68577;SDS011;61668;45.388;11.784;2023-05-08T12:05:09;10.90;;;5.30;;
68577;SDS011;61668;45.388;11.784;2023-05-08T12:07:42;12.60;;;6.50;;
68577;SDS011;61668;45.388;11.784;2023-05-08T12:10:11;11.90;;;6.70;;
68577;SDS011;61668;45.388;11.784;2023-05-08T12:12:40;15.00;;;7.60;;
68577;SDS011;61668;45.388;11.784;2023-05-08T12:15:08;13.20;;;6.70;;
68577;SDS011;61668;45.388;11.784;2023-05-08T12:17:35;12.40;;;6.70;;
68577;SDS011;61668;45.388;11.784;2023-05-08T12:20:16;11.80;;;6.40;;
68577;SDS011;61668;45.388;11.784;2023-05-08T12:22:49;14.50;;;6.80;;
68577;SDS011;61668;45.388;11.784;2023-05-08T12:25:16;12.50;;;6.20;;
68577;SDS011;61668;45.388;11.784;2023-05-08T12:27:43;14.70;;;6.40;;
68577;SDS011;61668;45.388;11.784;2023-05-08T12:30:12;13.50;;;7.30;;
68577;SDS011;61668;45.388;11.784;2023-05-08T12:32:42;14.10;;;6.60;;
68577;SDS011;61668;45.388;11.784;2023-05-08T12:35:10;12.20;;;5.90;;
68577;SDS011;61668;45.388;11.784;2023-05-08T12:37:36;10.90;;;5.80;;
68577;SDS011;61668;45.388;11.784;2023-05-08T12:40:03;13.30;;;6.90;;
68577;SDS011;61668;45.388;11.784;2023-05-08T12:45:16;12.90;;;6.30;;
68577;SDS011;61668;45.388;11.784;2023-05-08T12:47:47;11.10;;;5.70;;
68577;SDS011;61668;45.388;11.784;2023-05-08T12:50:14;12.50;;;6.30;;
68577;SDS011;61668;45.388;11.784;2023-05-08T12:52:41;11.10;;;5.60;;
68577;SDS011;61668;45.388;11.784;2023-05-08T12:55:27;11.90;;;6.10;;
68577;SDS011;61668;45.388;11.784;2023-05-08T12:58:08;10.70;;;5.50;;
68577;SDS011;61668;45.388;11.784;2023-05-08T13:00:40;11.50;;;5.10;;
68577;SDS011;61668;45.388;11.784;2023-05-08T13:03:12;12.20;;;5.40;;
68577;SDS011;61668;45.388;11.784;2023-05-08T13:05:45;11.00;;;5.30;;
68577;SDS011;61668;45.388;11.784;2023-05-08T13:08:11;11.20;;;5.40;;
68577;SDS011;61668;45.388;11.784;2023-05-08T13:10:53;11.60;;;5.50;;
68577;SDS011;61668;45.388;11.784;2023-05-08T13:13:24;11.30;;;4.90;;
68577;SDS011;61668;45.388;11.784;2023-05-08T13:15:53;13.40;;;5.00;;
68577;SDS011;61668;45.388;11.784;2023-05-08T13:18:21;11.20;;;4.90;;
68577;SDS011;61668;45.388;11.784;2023-05-08T13:20:49;12.00;;;5.00;;
68577;SDS011;61668;45.388;11.784;2023-05-08T13:23:14;10.90;;;4.70;;
68577;SDS011;61668;45.388;11.784;2023-05-08T13:25:40;12.90;;;5.30;;
68577;SDS011;61668;45.388;11.784;2023-05-08T13:28:08;11.10;;;4.90;;
68577;SDS011;61668;45.388;11.784;2023-05-08T13:30:35;10.80;;;5.90;;
68577;SDS011;61668;45.388;11.784;2023-05-08T13:33:03;10.80;;;5.30;;
68577;SDS011;61668;45.388;11.784;2023-05-08T13:35:29;11.20;;;5.60;;
68577;SDS011;61668;45.388;11.784;2023-05-08T13:37:56;14.50;;;6.20;;
68577;SDS011;61668;45.388;11.784;2023-05-08T13:40:23;11.50;;;6.60;;
68577;SDS011;61668;45.388;11.784;2023-05-08T13:42:49;13.10;;;6.60;;
68577;SDS011;61668;45.388;11.784;2023-05-08T13:45:15;14.30;;;6.30;;
68577;SDS011;61668;45.388;11.784;2023-05-08T13:47:46;12.50;;;6.40;;
68577;SDS011;61668;45.388;11.784;2023-05-08T13:50:14;10.80;;;5.90;;
68577;SDS011;61668;45.388;11.784;2023-05-08T13:52:41;11.50;;;5.90;;
68577;SDS011;61668;45.388;11.784;2023-05-08T13:55:09;12.40;;;6.30;;
68577;SDS011;61668;45.388;11.784;2023-05-08T13:57:36;11.70;;;5.60;;
68577;SDS011;61668;45.388;11.784;2023-05-08T14:00:04;10.60;;;5.60;;
68577;SDS011;61668;45.388;11.784;2023-05-08T14:02:31;10.80;;;5.10;;
68577;SDS011;61668;45.388;11.784;2023-05-08T14:04:56;10.60;;;5.50;;
68577;SDS011;61668;45.388;11.784;2023-05-08T14:07:22;9.60;;;4.50;;
68577;SDS011;61668;45.388;11.784;2023-05-08T14:09:48;10.60;;;5.40;;
68577;SDS011;61668;45.388;11.784;2023-05-08T14:12:15;9.30;;;4.30;;
68577;SDS011;61668;45.388;11.784;2023-05-08T14:14:41;9.80;;;4.70;;
68577;SDS011;61668;45.388;11.784;2023-05-08T14:17:07;10.20;;;4.00;;
68577;SDS011;61668;45.388;11.784;2023-05-08T14:19:33;10.40;;;4.60;;
68577;SDS011;61668;45.388;11.784;2023-05-08T14:21:59;11.10;;;4.70;;
68577;SDS011;61668;45.388;11.784;2023-05-08T14:24:24;11.70;;;4.90;;
68577;SDS011;61668;45.388;11.784;2023-05-08T14:26:50;10.60;;;5.00;;
68577;SDS011;61668;45.388;11.784;2023-05-08T14:29:17;13.20;;;6.60;;
68577;SDS011;61668;45.388;11.784;2023-05-08T14:31:45;12.80;;;6.00;;
68577;SDS011;61668;45.388;11.784;2023-05-08T14:34:11;12.20;;;6.10;;
68577;SDS011;61668;45.388;11.784;2023-05-08T14:36:36;14.50;;;6.00;;
68577;SDS011;61668;45.388;11.784;2023-05-08T14:39:03;12.20;;;6.70;;
68577;SDS011;61668;45.388;11.784;2023-05-08T14:41:29;13.20;;;7.00;;
68577;SDS011;61668;45.388;11.784;2023-05-08T14:43:56;11.10;;;5.30;;
68577;SDS011;61668;45.388;11.784;2023-05-08T14:46:23;9.30;;;4.70;;
68577;SDS011;61668;45.388;11.784;2023-05-08T14:48:49;8.40;;;3.40;;
68577;SDS011;61668;45.388;11.784;2023-05-08T14:51:15;8.30;;;3.70;;
68577;SDS011;61668;45.388;11.784;2023-05-08T14:53:44;9.90;;;4.70;;
68577;SDS011;61668;45.388;11.784;2023-05-08T14:56:11;10.10;;;3.60;;
68577;SDS011;61668;45.388;11.784;2023-05-08T14:58:38;8.50;;;3.80;;
68577;SDS011;61668;45.388;11.784;2023-05-08T15:01:04;8.70;;;3.80;;
68577;SDS011;61668;45.388;11.784;2023-05-08T15:03:29;8.60;;;3.50;;
68577;SDS011;61668;45.388;11.784;2023-05-08T15:05:55;9.00;;;2.90;;
68577;SDS011;61668;45.388;11.784;2023-05-08T15:08:21;7.80;;;2.90;;
68577;SDS011;61668;45.388;11.784;2023-05-08T15:10:46;7.50;;;2.60;;
68577;SDS011;61668;45.388;11.784;2023-05-08T15:13:12;8.20;;;3.10;;
68577;SDS011;61668;45.388;11.784;2023-05-08T15:15:38;7.10;;;2.50;;
68577;SDS011;61668;45.388;11.784;2023-05-08T15:18:03;7.90;;;3.30;;
68577;SDS011;61668;45.388;11.784;2023-05-08T15:20:29;6.90;;;2.40;;
68577;SDS011;61668;45.388;11.784;2023-05-08T15:22:55;7.90;;;3.50;;
68577;SDS011;61668;45.388;11.784;2023-05-08T15:25:21;7.80;;;3.20;;
68577;SDS011;61668;45.388;11.784;2023-05-08T15:27:46;7.50;;;3.00;;
68577;SDS011;61668;45.388;11.784;2023-05-08T15:30:20;9.80;;;4.00;;
68577;SDS011;61668;45.388;11.784;2023-05-08T15:32:47;8.30;;;3.90;;
68577;SDS011;61668;45.388;11.784;2023-05-08T15:35:13;9.30;;;4.20;;